Goldfield, Nevada Weather observations

Data are for observation ending at time listed.
 Day   Time    Ave.   Ave.  Ave.  Vector   Max.   Stn.    Total    Solar   Ave.  
  of    of     Air    Rel.  Wind   Wind    Wind   Baro.  Precip.   Rad.    Soil  
Year   Day     Temp.  Hum.  Speed  Dir.    Gust   Pres.                    Temp. 
2014   (PST)    F      %     mph   deg.    mph     mb.     in.     W/m2     F   
------------------------------------------------------------------------------
 360   15:00   27.8    48   24.0   314     34.4   828.7    0.00     144    31.6
 360   15:10   28.0    48   21.4   313     29.7   829.0    0.00     128    31.6
 360   15:20   27.5    48   22.1   314     28.8   829.2    0.00      70    31.6
 360   15:30   27.2    50   20.8   308     28.8   829.3    0.00      52    31.7
 360   15:40   27.0    52   21.4   308     29.5   829.4    0.00      48    31.7
 360   15:50   26.8    53   19.6   300     27.5   829.6    0.00      42    31.7
 360   16:00   26.5    54   19.5   297     28.1   829.5    0.00      34    31.7
 360   16:10   26.3    54   18.8   298     26.5   829.6    0.00      42    31.7
 360   16:20   26.3    53   16.5   301     22.9   829.7    0.00      30    31.7
 360   16:30   25.9    52   16.6   300     22.9   829.6    0.00      12    31.7
 360   16:40   25.4    50   16.0   303     22.9   829.6    0.00       7    31.7
 360   16:50   25.2    50   14.6   300     21.7   829.7    0.00       3    31.7
 360   17:00   24.7    54   13.7   298     18.7   829.9    0.00       0    31.7
 360   17:10   24.5    56   13.4   296     19.8   830.1    0.00       0    31.7
 360   17:20   23.8    58   11.9   293     16.7   830.3    0.00       0    31.7
 360   17:30   23.6    58   11.9   294     16.1   830.4    0.00       0    31.7
 360   17:40   23.4    58   11.8   296     18.2   830.6    0.00       0    31.7
 360   17:50   23.3    58   13.7   298     20.1   830.6    0.00       0    31.7
 360   18:00   23.3    57   14.1   296     19.3   830.6    0.00       0    31.7
 360   18:10   23.2    57   13.3   298     18.3   830.7    0.00       0    31.7
 360   18:20   23.2    56   14.6   296     20.8   830.7    0.00       0    31.7
 360   18:30   23.3    56   14.3   295     19.9   830.7    0.00       0    31.6
 360   18:40   23.3    56   12.7   294     17.8   830.9    0.00       0    31.6
 360   18:50   23.1    56   12.8   293     19.1   831.0    0.00       0    31.6
 360   19:00   22.9    57   13.2   295     18.6   831.1    0.00       0    31.6
 360   19:10   22.9    57   12.9   299     18.3   831.3    0.00       0    31.7
 360   19:20   22.8    57   12.7   299     17.2   831.4    0.00       0    31.6
 360   19:30   22.6    57   13.0   300     18.3   831.6    0.00       0    31.5
 360   19:40   22.6    58   13.6   302     18.7   831.5    0.00       0    31.5
 360   19:50   22.6    58   13.1   304     17.4   831.6    0.00       0    31.5
 360   20:00   22.4    59   13.2   304     16.8   831.7    0.00       0    31.4
 360   20:10   21.7    60   11.2   310     18.0   831.8    0.00       0    31.4
 360   20:20   20.8    63   11.2   317     15.4   831.8    0.00       0    31.4
 360   20:30   20.4    66   10.6   317     14.0   831.9    0.00       0    31.4
 360   20:40   20.0    68    8.1   310     12.5   832.1    0.00       0    31.3
 360   20:50   19.6    69    7.0   298     10.2   832.2    0.00       0    31.3
 360   21:00   19.1    70    5.5   298      8.3   832.2    0.00       0    31.3
 360   21:10   18.4    72    5.0   296      7.3   832.3    0.00       0    31.2
 360   21:20   17.8    74    3.9   284      5.3   832.3    0.00       0    31.2
 360   21:30   17.7    75    4.8   305      7.0   832.4    0.00       0    31.1
 360   21:40   18.0    74    4.0   306      6.9   832.5    0.00       0    31.1
 360   21:50   17.2    76    3.6   298      5.7   832.4    0.00       0    31.1
 360   22:00   17.2    76    5.4   307      7.8   832.3    0.00       0    31.0
 360   22:10   17.1    76    3.2   290      5.6   832.4    0.00       0    31.0
 360   22:20   16.6    77    3.3   293      5.5   832.5    0.00       0    30.9
 360   22:30   16.8    77    4.1   315      5.9   832.5    0.00       0    30.9
 360   22:40   17.0    77    4.4   322      5.8   832.5    0.00       0    30.9
 360   22:50   16.1    78    3.6   299      5.9   832.6    0.00       0    30.9
 360   23:00   15.9    80    4.3   303      6.7   832.8    0.00       0    30.8
 360   23:10   16.3    79    2.5   326      4.7   832.8    0.00       0    30.8
 360   23:20   16.2    78    2.6   345      4.2   832.8    0.00       0    30.7
 360   23:30   16.5    79    4.3   340      7.7   832.8    0.00       0    30.7
 360   23:40   17.1    77    5.0   327      7.4   832.8    0.00       0    30.7
 360   23:50   17.1    77    3.8   313      7.9   832.8    0.00       0    30.6
 361    0:00   17.0    77    3.3   302     10.0   832.9    0.00       0    30.6
 361    0:10   17.6    76    8.3   295     12.3   832.8    0.00       0    30.5
 361    0:20   18.4    74    9.0   309     13.2   832.9    0.00       0    30.5
 361    0:30   18.7    73    8.8   321     13.4   832.9    0.00       0    30.4
 361    0:40   18.1    74    7.8   304     11.5   832.9    0.00       0    30.4
 361    0:50   17.2    76    8.8   280     13.7   833.1    0.00       0    30.4
 361    1:00   17.3    76    8.8   290     12.8   833.2    0.00       0    30.3
 361    1:10   17.2    76    9.6   298     12.8   833.2    0.00       0    30.3
 361    1:20   16.9    76    8.6   302     11.2   833.3    0.00       0    30.2
 361    1:30   16.8    76    6.1   320     10.3   833.3    0.00       0    30.2
 361    1:40   16.1    76    4.2   346      6.4   833.3    0.00       0    30.2
 361    1:50   15.5    78    3.9   348      6.1   833.4    0.00       0    30.1
 361    2:00   15.3    78    3.7   342      5.5   833.6    0.00       0    30.1
 361    2:10   15.0    78    3.0   338      4.9   833.5    0.00       0    30.1
 361    2:20   14.7    79    2.6   339      4.2   833.6    0.00       0    30.0
 361    2:30   15.0    78    3.6   339      5.4   833.6    0.00       0    30.0
 361    2:40   15.2    78    4.7   319      6.9   833.7    0.00       0    29.9
 361    2:50   16.1    75    7.1   320      9.8   833.7    0.00       0    29.9
 361    3:00   15.9    75    6.0   326      8.7   833.8    0.00       0    29.8
 361    3:10   15.3    77    5.6   331      8.0   833.9    0.00       0    29.8
 361    3:20   15.4    77    6.2   305      9.4   834.0    0.00       0    29.7
 361    3:30   15.5    77    7.3   296     10.5   834.0    0.00       0    29.7
 361    3:40   15.5    77    8.2   295     10.4   834.0    0.00       0    29.7
 361    3:50   15.5    76    8.0   298     10.4   834.0    0.00       0    29.6
 361    4:00   15.3    77    7.6   293      9.3   833.9    0.00       0    29.5
 361    4:10   15.2    77    7.5   298      9.7   833.9    0.00       0    29.5
 361    4:20   15.5    76    6.7   311      8.6   833.9    0.00       0    29.5
 361    4:30   15.8    74    5.7   322      7.7   833.9    0.00       0    29.4
 361    4:40   15.4    75    4.6   342      7.2   833.8    0.00       0    29.4
 361    4:50   15.5    75    5.3   343      8.0   833.9    0.00       0    29.3
 361    5:00   15.9    74    7.4   311     12.9   833.9    0.00       0    29.4
 361    5:10   15.3    75    4.8   343      8.1   833.9    0.00       0    29.3
 361    5:20   15.8    74    6.5   338     10.2   833.9    0.00       0    29.3
 361    5:30   16.0    73    4.7   322      8.0   834.0    0.00       0    29.2
 361    5:40   15.6    74    4.0   316      6.7   833.9    0.00       0    29.2
 361    5:50   14.8    75    2.9   304      5.4   833.9    0.00       0    29.1
 361    6:00   15.1    76    4.3   315      6.4   834.1    0.00       0    29.1
 361    6:10   14.7    76    3.9   345      5.6   834.1    0.00       0    29.0
 361    6:20   14.5    77    5.4   332      7.8   834.1    0.00       0    29.0
 361    6:30   14.4    76    4.3   338      7.2   834.2    0.00       0    29.0
 361    6:40   14.2    77    5.2   332      7.7   834.2    0.00       0    29.0
 361    6:50   14.1    77    5.3   327      7.3   834.3    0.00       0    28.9
 361    7:00   13.5    78    3.6   335      7.5   834.3    0.00       3    28.8
 361    7:10   12.7    79    2.4   270      4.2   834.6    0.00       5    28.8
 361    7:20   12.0    81    1.2   216      3.5   834.7    0.00      10    28.8
 361    7:30   12.7    81    0.7   238      2.5   835.0    0.00      26    28.8
 361    7:40   13.6    78    1.5   128      3.2   835.1    0.00      54    28.7
 361    7:50   14.0    78    2.4   131      3.2   835.2    0.00      81    28.7
 361    8:00   15.5    76    0.8   143      2.0   835.2    0.00     107    28.6
 361    8:10   16.6    74    0.4    90      1.3   835.3    0.00     138    28.6
 361    8:20   17.4    70    1.0   308      1.8   835.2    0.00     170    28.6
 361    8:30   18.7    67    0.8   336      2.2   835.4    0.00     192    28.6
 361    8:40   21.3    61    1.5    30      2.7   835.4    0.00     220    28.6
 361    8:50   23.3    57    0.6   323      1.9   835.3    0.00     250    28.6
 361    9:00   25.0    53    0.6   306      2.7   835.4    0.00     238    28.6
 361    9:10   25.8    52    0.7    72      1.7   835.5    0.00      70    28.6
 361    9:20   26.4    51    0.6   336      1.7   835.7    0.00     285    28.6
 361    9:30   25.2    54    1.7   359      3.9   835.8    0.00     344    28.6
 361    9:40   25.2    53    1.2    21      3.1   835.9    0.00     343    28.6
 361    9:50   27.3    49    1.2     2      3.4   836.1    0.00     396    28.6
 361   10:00   27.7    47    2.1    25      5.3   835.9    0.00     403    28.7
 361   10:10   27.9    47    2.5     4      5.5   835.8    0.00     406    28.7
 361   10:20   27.4    46    3.0    14      5.6   835.7    0.00     409    28.8
 361   10:30   27.8    45    3.3    27      6.0   835.7    0.00     441    28.9
 361   10:40   28.8    44    2.8    53      5.5   835.6    0.00     442    28.9
 361   10:50   28.9    42    2.4    53      4.7   835.3    0.00     455    29.0
 361   11:00   29.7    42    3.1    59      6.0   834.8    0.00     489    29.0
 361   11:10   30.5    40    3.0    43      5.1   834.6    0.00     457    29.1
 361   11:20   30.8    40    2.1   118      4.5   834.3    0.00     469    29.1
 361   11:30   32.5    37    2.1    77      4.7   834.3    0.00     501    29.1
 361   11:40   32.6    37    3.2    25      6.9   834.2    0.00     501    29.2
 361   11:50   32.5    37    4.9    78      8.7   833.9    0.00     504    29.2
 361   12:00   31.6    38    6.1    80     10.5   833.7    0.00     431    29.3
 361   12:10   31.2    38    5.0    64      9.6   833.8    0.00     444    29.3
 361   12:20   32.2    37    3.6    96      6.9   833.9    0.00     476    29.4
 361   12:30   31.6    38    5.7    65      8.8   833.6    0.00     437    29.4
 361   12:40   31.1    39    5.1    87      8.0   833.4    0.00     424    29.5
 361   12:50   31.7    38    6.2    72      9.7   833.3    0.00     458    29.6
 361   13:00   31.9    37    5.5    77      8.6   833.2    0.00     473    29.7
 361   13:10   31.9    37    5.5    89     10.8   833.2    0.00     404    29.7
 361   13:20   32.3    36    6.0    84     10.2   833.2    0.00     431    29.8
 361   13:30   32.5    36    5.1    90      8.8   833.1    0.00     412    29.8
 361   13:40   32.6    36    4.5    86      7.4   833.1    0.00     389    29.9
 361   13:50   33.4    35    4.6    74      7.5   833.0    0.00     374    30.0
 361   14:00   33.3    35    5.0    86     10.9   833.0    0.00     333    30.0
 361   14:10   33.3    34    4.0    95      7.9   833.1    0.00     328    30.1
 361   14:20   33.7    34    3.3    93      7.3   833.0    0.00     296    30.2
 361   14:30   33.6    34    4.5    89      7.9   833.1    0.00     276    30.3
 361   14:40   33.7    34    3.5   109      6.7   833.1    0.00     248    30.3
 361   14:50   33.6    34    4.2    98      7.2   833.0    0.00     239    30.4

Return to Goldfield, Nevada graphs page.


Western Regional Climate Center,wrcc@dri.edu